Time;durP1;ratioP1;P1;durP2;ratioP2;P2;SDS_P1;SDS_P2;PMS_P1;PMS_P2;Temp;Humidity;BMP_temperature;BMP_pressure;BME280_temperature;BME280_humidity;BME280_pressure;Samples;Min_cycle;Max_cycle;Signal;HPM_P1;HPM_P2
2022/10/17 00:02:23;;;;;;;4.35;2.30;;;;;;;11.06;100.00;97879.44;5012693;28;20044;-63
2022/10/17 00:04:49;;;;;;;;;;;;;;;11.02;100.00;97870.13;5028104;28;20046;-63
2022/10/17 00:07:15;;;;;;;;;;;;;;;10.99;100.00;97874.13;5022562;28;20301;-63
2022/10/17 00:09:42;;;;;;;;;;;;;;;11.05;100.00;97870.47;5028139;28;20015;-63
2022/10/17 00:12:09;;;;;;;;;;;;;;;11.12;100.00;97880.31;5019508;28;20004;-62
2022/10/17 00:14:36;;;;;;;;;;;;;;;11.05;100.00;97875.88;5029056;28;19924;-63
2022/10/17 00:17:02;;;;;;;;;;;;;;;10.96;100.00;97877.34;5029261;28;19999;-63
2022/10/17 00:19:28;;;;;;;;;;;;;;;10.80;100.00;97887.06;5026849;28;20419;-63
2022/10/17 00:21:55;;;;;;;;;;;;;;;10.84;100.00;97877.38;5028343;28;20006;-63
2022/10/17 00:24:21;;;;;;;;;;;;;;;10.76;100.00;97875.06;5028198;28;19927;-63
2022/10/17 00:26:47;;;;;;;;;;;;;;;10.69;100.00;97880.59;5028096;28;20007;-63
2022/10/17 00:29:14;;;;;;;;;;;;;;;10.70;100.00;97887.69;5028782;28;19924;-63
2022/10/17 00:31:40;;;;;;;;;;;;;;;10.62;100.00;97890.75;5028974;28;20394;-62
2022/10/17 00:34:07;;;;;;;;;;;;;;;10.45;100.00;97886.09;5028816;28;19920;-63
2022/10/17 00:36:33;;;;;;;;;;;;;;;10.51;100.00;97889.72;5028891;28;19925;-63
2022/10/17 00:39:00;;;;;;;;;;;;;;;10.57;100.00;97901.50;5028750;28;19921;-63
2022/10/17 00:41:28;;;;;;;;;;;;;;;10.57;100.00;97896.06;5026379;28;19964;-63
2022/10/17 00:43:54;;;;;;;;;;;;;;;10.65;100.00;97901.13;5029241;28;19931;-62
2022/10/17 00:46:21;;;;;;;;;;;;;;;10.69;100.00;97901.44;5028523;28;19967;-63
2022/10/17 00:48:49;;;;;;;;;;;;;;;10.70;100.00;97895.81;5027602;28;19921;-63
2022/10/17 00:51:18;;;;;;;;;;;;;;;10.74;100.00;97894.25;5021305;28;19955;-63
2022/10/17 00:53:45;;;;;;;4.75;2.60;;;;;;;10.72;100.00;97901.78;5022082;28;19921;-62
2022/10/17 00:56:12;;;;;;;8.18;4.00;;;;;;;10.73;100.00;97892.59;5027093;28;20382;-62
2022/10/17 00:58:39;;;;;;;5.25;2.40;;;;;;;10.78;100.00;97890.00;5026064;28;20555;-63
2022/10/17 01:01:05;;;;;;;7.38;2.65;;;;;;;10.89;100.00;97898.31;5027760;28;20041;-63
2022/10/17 01:03:32;;;;;;;4.28;2.58;;;;;;;10.86;100.00;97885.25;5027022;28;20069;-63
2022/10/17 01:05:58;;;;;;;7.28;2.85;;;;;;;10.86;100.00;97896.09;5027715;28;20042;-63
2022/10/17 01:08:25;;;;;;;10.57;3.15;;;;;;;11.04;100.00;97895.91;5020188;28;20068;-62
2022/10/17 01:11:10;;;;;;;11.82;3.22;;;;;;;11.01;100.00;97890.97;5025893;28;20156;-62
2022/10/17 01:13:45;;;;;;;5.53;3.13;;;;;;;10.98;100.00;97894.16;5027943;28;20072;-63
2022/10/17 01:16:34;;;;;;;4.72;2.90;;;;;;;10.86;100.00;97894.22;5023328;28;20042;-63
2022/10/17 01:19:36;;;;;;;9.55;3.30;;;;;;;10.84;100.00;97901.75;5026149;28;20080;-62
2022/10/17 01:22:45;;;;;;;8.65;2.90;;;;;;;10.79;100.00;97888.94;5026273;28;20167;-63
2022/10/17 01:25:36;;;;;;;5.03;3.00;;;;;;;10.85;100.00;97895.28;5013372;28;20520;-63
2022/10/17 01:28:23;;;;;;;7.05;3.42;;;;;;;10.71;100.00;97896.59;5026583;28;20041;-63
2022/10/17 01:31:11;;;;;;;5.32;2.58;;;;;;;10.69;100.00;97901.44;5022243;28;20057;-63
2022/10/17 01:33:49;;;;;;;6.22;2.90;;;;;;;10.69;100.00;97896.84;5027498;28;20045;-63
2022/10/17 01:36:47;;;;;;;6.20;2.95;;;;;;;10.58;100.00;97901.22;5015537;28;20069;-63
2022/10/17 01:39:49;;;;;;;5.45;2.55;;;;;;;10.72;100.00;97896.38;5025272;28;20088;-63
2022/10/17 01:42:18;;;;;;;6.78;3.47;;;;;;;11.35;100.00;97895.63;5024309;28;20037;-63
2022/10/17 01:45:26;;;;;;;5.85;2.65;;;;;;;11.77;100.00;97891.75;5026415;28;20048;-62
2022/10/17 01:47:55;;;;;;;5.22;2.50;;;;;;;11.60;100.00;97891.72;5024632;28;20048;-62
2022/10/17 01:50:28;;;;;;;5.10;2.42;;;;;;;11.54;100.00;97877.25;5025576;28;20049;-62
2022/10/17 01:53:02;;;;;;;8.13;2.97;;;;;;;11.52;100.00;97875.84;5025684;28;20092;-63
2022/10/17 01:55:41;;;;;;;5.93;2.35;;;;;;;11.43;100.00;97878.97;5024517;28;20044;-62
2022/10/17 01:58:12;;;;;;;7.78;3.90;;;;;;;11.37;100.00;97876.41;5023452;28;20082;-63
2022/10/17 02:00:41;;;;;;;;;;;;;;;11.27;100.00;97874.34;5025088;28;20064;-62
2022/10/17 02:03:15;;;;;;;6.28;3.08;;;;;;;11.10;100.00;97875.16;5022615;28;20004;-62
2022/10/17 02:05:43;;;;;;;6.57;3.00;;;;;;;11.09;100.00;97875.41;5025182;28;20045;-62
2022/10/17 02:08:11;;;;;;;7.90;3.13;;;;;;;11.15;100.00;97871.72;5025023;28;20050;-62
2022/10/17 02:11:00;;;;;;;6.20;2.80;;;;;;;11.21;100.00;97878.88;5022652;28;20046;-62
2022/10/17 02:13:52;;;;;;;7.45;2.67;;;;;;;11.22;100.00;97874.25;5024194;28;20119;-62
2022/10/17 02:16:45;;;;;;;6.55;2.80;;;;;;;11.27;100.00;97879.78;5024931;28;20069;-63
2022/10/17 02:19:29;;;;;;;4.35;2.70;;;;;;;11.25;100.00;97871.91;5024256;28;20045;-63
2022/10/17 02:22:15;;;;;;;7.05;2.85;;;;;;;11.21;100.00;97878.88;5025009;28;20045;-63
2022/10/17 02:24:51;;;;;;;5.65;2.50;;;;;;;11.18;100.00;97869.31;5026792;28;20041;-63
2022/10/17 02:27:46;;;;;;;5.95;2.45;;;;;;;11.05;100.00;97875.88;5026626;28;20045;-63
2022/10/17 02:30:45;;;;;;;6.70;2.50;;;;;;;11.06;100.00;97874.00;5006376;28;20038;-63
2022/10/17 02:33:26;;;;;;;4.82;2.95;;;;;;;11.00;100.00;97881.22;4999768;28;20141;-64
2022/10/17 02:35:59;;;;;;;5.32;3.17;;;;;;;11.10;100.00;97877.88;5016701;28;20099;-63
2022/10/17 02:38:29;;;;;;;9.70;3.40;;;;;;;11.38;100.00;97876.19;5024936;28;20053;-62
2022/10/17 02:40:56;;;;;;;7.18;2.90;;;;;;;11.45;100.00;97874.16;5024490;28;20703;-62
2022/10/17 02:43:24;;;;;;;5.50;2.42;;;;;;;11.49;100.00;97879.06;5024442;28;20045;-62
2022/10/17 02:45:51;;;;;;;10.38;2.80;;;;;;;11.49;100.00;97870.91;5035670;28;20608;-62
2022/10/17 02:48:31;;;;;;;5.25;2.60;;;;;;;11.46;100.00;97883.09;5024979;28;20556;-62
2022/10/17 02:51:08;;;;;;;12.48;3.33;;;;;;;11.44;100.00;97877.09;5025102;28;20143;-63
2022/10/17 02:53:53;;;;;;;7.43;2.92;;;;;;;11.42;100.00;97882.75;5025135;28;20061;-62
2022/10/17 02:56:21;;;;;;;4.90;2.50;;;;;;;11.41;100.00;97877.56;5024271;28;20056;-62
2022/10/17 02:58:53;;;;;;;5.68;2.15;;;;;;;11.37;100.00;97876.41;5026159;28;20041;-63
2022/10/17 03:01:20;;;;;;;7.15;3.10;;;;;;;11.34;100.00;97888.59;5024096;28;20103;-63
2022/10/17 03:03:47;;;;;;;6.15;2.83;;;;;;;11.34;100.00;97880.44;5024491;28;20520;-63
2022/10/17 03:06:14;;;;;;;4.50;2.70;;;;;;;11.35;100.00;97886.69;5025038;28;20107;-63
2022/10/17 03:08:40;;;;;;;8.38;2.70;;;;;;;11.38;100.00;97884.31;5025746;28;20050;-63
2022/10/17 03:11:07;;;;;;;5.88;2.47;;;;;;;11.45;100.00;97886.88;5025885;28;20038;-63
2022/10/17 03:13:34;;;;;;;4.78;2.35;;;;;;;11.50;100.00;97883.44;5024971;28;20040;-63
2022/10/17 03:16:05;;;;;;;5.20;2.58;;;;;;;11.51;100.00;97885.91;5024921;28;20045;-63
2022/10/17 03:18:32;;;;;;;9.00;2.60;;;;;;;11.50;100.00;97886.94;5024432;28;20139;-63
2022/10/17 03:20:59;;;;;;;4.80;2.35;;;;;;;11.61;100.00;97887.13;5024683;28;20045;-63
2022/10/17 03:23:26;;;;;;;6.95;3.03;;;;;;;11.47;100.00;97884.75;5028070;28;20451;-63
2022/10/17 03:25:53;;;;;;;8.95;2.22;;;;;;;11.37;100.00;97879.97;5028842;28;20048;-63
2022/10/17 03:28:20;;;;;;;8.43;2.55;;;;;;;11.30;100.00;97885.53;5027945;28;20075;-62
2022/10/17 03:30:47;;;;;;;4.60;2.30;;;;;;;11.22;100.00;97887.81;5027931;28;20520;-63
2022/10/17 03:33:13;;;;;;;6.97;2.45;;;;;;;11.19;100.00;97889.13;5021885;28;20138;-63
2022/10/17 03:35:40;;;;;;;8.07;2.58;;;;;;;11.20;100.00;97882.63;5027288;28;20048;-63
2022/10/17 03:38:07;;;;;;;4.95;2.35;;;;;;;11.19;100.00;97878.28;5029641;28;20672;-62
2022/10/17 03:40:33;;;;;;;7.78;3.13;;;;;;;11.22;100.00;97882.41;5026940;28;20041;-63
2022/10/17 03:43:00;;;;;;;8.10;3.17;;;;;;;11.25;100.00;97893.59;5028198;28;20050;-63
2022/10/17 03:45:28;;;;;;;5.72;2.70;;;;;;;11.27;100.00;97877.91;5028334;28;20467;-62
2022/10/17 03:47:57;;;;;;;7.07;3.20;;;;;;;11.19;100.00;97881.00;5028066;28;20076;-63
2022/10/17 03:50:24;;;;;;;6.75;2.75;;;;;;;11.13;100.00;97887.41;5043978;28;20064;-64
2022/10/17 03:52:50;;;;;;;8.35;3.63;;;;;;;11.14;100.00;97891.75;5037164;28;20491;-63
2022/10/17 03:55:17;;;;;;;5.32;2.72;;;;;;;11.13;100.00;97898.25;5027325;28;20056;-63
2022/10/17 03:57:44;;;;;;;5.25;2.70;;;;;;;11.22;100.00;97899.50;5027614;28;20129;-63
2022/10/17 04:00:12;;;;;;;6.05;2.70;;;;;;;11.23;100.00;97901.13;5027345;28;20053;-63
2022/10/17 04:02:49;;;;;;;5.22;2.75;;;;;;;11.20;100.00;97907.03;5026917;28;20405;-63
2022/10/17 04:05:17;;;;;;;5.10;2.28;;;;;;;11.25;100.00;97909.84;5028937;28;20164;-63
2022/10/17 04:07:44;;;;;;;5.88;2.60;;;;;;;11.36;100.00;97912.75;5026055;28;20567;-63
2022/10/17 04:10:12;;;;;;;5.28;2.53;;;;;;;11.25;100.00;97917.16;5027627;28;20444;-64
2022/10/17 04:12:40;;;;;;;11.65;2.83;;;;;;;11.10;100.00;97923.13;5026644;28;20049;-63
2022/10/17 04:15:08;;;;;;;7.15;2.60;;;;;;;11.14;100.00;97922.41;5027967;28;20042;-62
2022/10/17 04:17:35;;;;;;;6.40;2.33;;;;;;;11.16;100.00;97924.84;5026810;28;20056;-63
2022/10/17 04:20:05;;;;;;;8.18;3.15;;;;;;;11.18;100.00;97928.16;5027516;28;20090;-64
2022/10/17 04:22:32;;;;;;;6.75;2.78;;;;;;;11.12;100.00;97934.50;5026694;28;20045;-63
2022/10/17 04:24:59;;;;;;;5.60;2.60;;;;;;;11.16;100.00;97933.81;5022363;28;20049;-62
2022/10/17 04:27:31;;;;;;;6.80;2.47;;;;;;;11.10;100.00;97942.09;5019908;28;20069;-62
2022/10/17 04:29:58;;;;;;;7.35;2.83;;;;;;;11.11;100.00;97943.72;5018913;28;20585;-63
2022/10/17 04:32:25;;;;;;;4.50;2.53;;;;;;;11.02;100.00;97944.09;5027503;28;20076;-62
2022/10/17 04:35:07;;;;;;;4.32;2.55;;;;;;;11.08;100.00;97949.63;5020832;28;20440;-63
2022/10/17 04:37:34;;;;;;;6.13;2.60;;;;;;;11.01;100.00;97942.47;5013408;28;20047;-62
2022/10/17 04:40:07;;;;;;;5.38;2.75;;;;;;;11.06;100.00;97945.25;5026277;28;20046;-63
2022/10/17 04:42:34;;;;;;;7.72;2.70;;;;;;;11.05;100.00;97948.22;5034349;28;20662;-63
2022/10/17 04:45:02;;;;;;;4.43;2.42;;;;;;;10.75;100.00;97947.38;5026392;28;20061;-62
2022/10/17 04:47:29;;;;;;;6.45;2.60;;;;;;;10.70;100.00;97941.84;5019840;28;20048;-62
2022/10/17 04:49:55;;;;;;;4.80;2.40;;;;;;;10.68;100.00;97941.25;5026299;28;20527;-62
2022/10/17 04:52:22;;;;;;;17.05;3.85;;;;;;;10.66;100.00;97935.25;5023894;28;20042;-63
2022/10/17 04:54:49;;;;;;;10.40;2.92;;;;;;;10.63;100.00;97938.44;5022863;28;20668;-63
2022/10/17 04:57:17;;;;;;;6.00;2.83;;;;;;;10.61;100.00;97946.78;5031722;28;20045;-63
2022/10/17 04:59:52;;;;;;;6.25;2.80;;;;;;;10.58;100.00;97941.03;5033813;28;20052;-63
2022/10/17 05:02:30;;;;;;;7.40;2.70;;;;;;;10.47;100.00;97940.78;5034792;28;20092;-63
2022/10/17 05:04:57;;;;;;;5.85;2.70;;;;;;;10.44;100.00;97940.44;5035263;28;20242;-64
2022/10/17 05:07:23;;;;;;;5.82;3.08;;;;;;;10.53;100.00;97949.88;5035641;28;20041;-63
2022/10/17 05:10:10;;;;;;;7.72;3.00;;;;;;;10.59;100.00;97942.69;5036368;28;20045;-63
2022/10/17 05:12:39;;;;;;;7.38;2.78;;;;;;;10.62;100.00;97942.22;5029832;28;20042;-63
2022/10/17 05:15:07;;;;;;;5.28;2.95;;;;;;;10.61;100.00;97940.56;5035974;28;20538;-63
2022/10/17 05:17:33;;;;;;;6.57;3.35;;;;;;;10.66;100.00;97937.97;5036091;28;20103;-64
2022/10/17 05:20:00;;;;;;;4.15;2.58;;;;;;;10.71;100.00;97937.22;5032236;28;20041;-63
2022/10/17 05:22:29;;;;;;;4.90;2.97;;;;;;;10.73;100.00;97933.22;5031871;28;20095;-64
2022/10/17 05:24:56;;;;;;;8.85;2.67;;;;;;;10.70;100.00;97936.44;5035126;28;20049;-64
2022/10/17 05:27:23;;;;;;;5.30;2.90;;;;;;;10.73;100.00;97938.63;5037937;28;20076;-64
2022/10/17 05:29:49;;;;;;;5.47;3.20;;;;;;;10.71;100.00;97939.94;5051943;28;20037;-63
2022/10/17 05:32:22;;;;;;;4.85;2.90;;;;;;;10.65;100.00;97941.75;5031859;28;20052;-63
2022/10/17 05:34:48;;;;;;;5.28;2.67;;;;;;;10.68;100.00;97929.59;5041238;28;20103;-63
2022/10/17 05:37:15;;;;;;;6.25;2.90;;;;;;;10.62;100.00;97940.31;5026154;28;20103;-63
2022/10/17 05:39:46;;;;;;;6.68;3.28;;;;;;;10.44;100.00;97944.00;5019089;28;20057;-64
2022/10/17 05:42:17;;;;;;;5.70;3.22;;;;;;;10.37;100.00;97949.50;5020134;28;20041;-64
2022/10/17 05:44:44;;;;;;;6.57;3.28;;;;;;;10.37;100.00;97954.09;5021106;28;20049;-64
2022/10/17 05:47:12;;;;;;;7.22;3.03;;;;;;;10.38;100.00;97958.44;5022137;28;20041;-64
2022/10/17 05:49:40;;;;;;;7.80;3.20;;;;;;;10.42;100.00;97951.50;5015300;28;20061;-64
2022/10/17 05:52:15;;;;;;;5.25;3.00;;;;;;;10.52;100.00;97949.06;5016878;28;20543;-64
2022/10/17 05:54:57;;;;;;;5.35;3.03;;;;;;;10.61;100.00;97944.09;5016174;28;20088;-64
2022/10/17 05:57:25;;;;;;;6.32;3.22;;;;;;;10.39;100.00;97941.97;5022033;28;20045;-64
2022/10/17 05:59:52;;;;;;;6.28;3.33;;;;;;;10.47;100.00;97948.13;5023546;28;20140;-64
2022/10/17 06:02:19;;;;;;;5.60;2.92;;;;;;;10.59;100.00;97950.81;5022302;28;20072;-64
2022/10/17 06:04:47;;;;;;;4.72;2.78;;;;;;;10.31;100.00;97949.63;5023694;28;20538;-63
2022/10/17 06:07:15;;;;;;;7.28;3.05;;;;;;;10.34;100.00;97951.84;5023006;28;20073;-63
2022/10/17 06:09:43;;;;;;;5.78;3.15;;;;;;;10.31;100.00;97961.25;5025200;28;20059;-63
2022/10/17 06:12:14;;;;;;;5.22;3.20;;;;;;;10.36;100.00;97963.28;5020252;28;20049;-64
2022/10/17 06:14:41;;;;;;;6.10;3.15;;;;;;;10.52;100.00;97961.75;5023050;28;20060;-64
2022/10/17 06:17:10;;;;;;;5.75;3.67;;;;;;;10.58;100.00;97960.81;5023684;28;20622;-64
2022/10/17 06:19:43;;;;;;;7.97;3.08;;;;;;;10.64;100.00;97956.31;5025067;28;20064;-63
2022/10/17 06:22:11;;;;;;;8.23;3.17;;;;;;;10.60;100.00;97960.56;5023003;28;20516;-64
2022/10/17 06:24:38;;;;;;;7.72;2.90;;;;;;;10.53;100.00;97966.94;5022759;28;20140;-64
2022/10/17 06:27:05;;;;;;;4.82;2.60;;;;;;;10.60;100.00;97963.28;5023479;28;20088;-63
2022/10/17 06:29:37;;;;;;;5.82;3.30;;;;;;;10.71;100.00;97964.31;5022894;28;20050;-63
2022/10/17 06:32:05;;;;;;;6.32;3.80;;;;;;;10.86;100.00;97980.91;5024472;28;20570;-63
2022/10/17 06:34:36;;;;;;;7.22;3.85;;;;;;;10.95;100.00;97983.25;5023008;28;20052;-63
2022/10/17 06:37:03;;;;;;;11.45;5.43;;;;;;;11.09;100.00;97987.31;5023397;28;20315;-63
2022/10/17 06:39:34;;;;;;;5.00;2.70;;;;;;;11.40;100.00;97990.66;5022689;28;20196;-64
2022/10/17 06:42:09;;;;;;;5.80;2.88;;;;;;;11.79;100.00;97995.41;5022338;28;20055;-64
2022/10/17 06:44:54;;;;;;;4.88;2.67;;;;;;;11.94;100.00;97996.75;5024646;28;20060;-64
2022/10/17 06:47:42;;;;;;;5.43;3.33;;;;;;;12.02;100.00;98004.47;5023186;28;20049;-63
2022/10/17 06:50:33;;;;;;;6.60;2.72;;;;;;;12.10;100.00;98011.44;5017670;28;20175;-64
2022/10/17 06:53:21;;;;;;;5.32;3.08;;;;;;;12.51;100.00;98013.97;5023013;28;20081;-64
2022/10/17 06:56:08;;;;;;;5.00;2.03;;;;;;;12.81;100.00;98007.31;5011867;28;20416;-64
2022/10/17 06:58:46;;;;;;;4.63;2.53;;;;;;;12.98;100.00;98017.31;5022135;28;20049;-64
2022/10/17 07:01:25;;;;;;;4.88;2.47;;;;;;;13.12;100.00;98021.31;5022554;28;20038;-64
2022/10/17 07:03:55;;;;;;;4.70;2.35;;;;;;;13.26;100.00;98031.81;5022649;28;20665;-65
2022/10/17 07:06:25;;;;;;;5.72;2.33;;;;;;;13.37;99.94;98030.84;5022734;28;20432;-65
2022/10/17 07:08:54;;;;;;;4.70;2.33;;;;;;;13.52;99.35;98026.69;5025625;28;20107;-65
2022/10/17 07:11:21;;;;;;;7.50;2.40;;;;;;;13.58;98.84;98028.41;5020709;28;20933;-64
2022/10/17 07:13:50;;;;;;;4.68;2.53;;;;;;;13.56;98.90;98030.53;5020383;28;20053;-65
2022/10/17 07:16:16;;;;;;;7.57;3.17;;;;;;;13.61;98.93;98027.91;5023554;28;20064;-65
2022/10/17 07:18:48;;;;;;;5.07;2.40;;;;;;;13.75;98.35;98025.56;5026044;28;20041;-65
2022/10/17 07:21:16;;;;;;;4.78;2.45;;;;;;;13.96;97.35;98035.84;5019588;28;20572;-65
2022/10/17 07:23:43;;;;;;;4.20;2.10;;;;;;;14.16;96.10;98033.28;5039119;28;20460;-65
2022/10/17 07:26:12;;;;;;;6.82;2.45;;;;;;;14.34;95.48;98036.72;5025285;28;20045;-65
2022/10/17 07:28:42;;;;;;;5.95;2.15;;;;;;;14.48;94.39;98028.91;5024693;28;20132;-64
2022/10/17 07:31:23;;;;;;;4.10;2.33;;;;;;;14.60;93.88;98030.66;5023617;28;20052;-64
2022/10/17 07:33:50;;;;;;;6.25;2.05;;;;;;;14.62;93.41;98036.63;5024718;28;20653;-64
2022/10/17 07:36:16;;;;;;;5.32;1.95;;;;;;;14.69;93.45;98032.63;5022125;28;20065;-64
2022/10/17 07:38:43;;;;;;;9.82;2.22;;;;;;;14.82;92.94;98036.00;5023288;28;20696;-64
2022/10/17 07:41:11;;;;;;;5.85;2.20;;;;;;;14.92;92.57;98032.50;5021944;28;20153;-64
2022/10/17 07:43:45;;;;;;;6.95;2.50;;;;;;;14.95;92.52;98038.25;5038591;28;20512;-64
2022/10/17 07:46:13;;;;;;;7.85;3.05;;;;;;;14.97;92.21;98034.44;5022519;28;20088;-64
2022/10/17 07:48:40;;;;;;;6.55;2.25;;;;;;;15.01;91.82;98027.38;5020773;28;20065;-65
2022/10/17 07:51:08;;;;;;;7.72;2.42;;;;;;;15.05;92.59;98031.22;5021869;28;20147;-64
2022/10/17 07:53:39;;;;;;;4.20;2.03;;;;;;;15.34;90.98;98036.25;5023474;28;20498;-63
2022/10/17 07:56:10;;;;;;;4.20;2.03;;;;;;;15.51;90.52;98033.28;5023676;28;20499;-63
2022/10/17 07:58:37;;;;;;;6.82;2.40;;;;;;;15.67;89.71;98047.00;5023134;28;20053;-63
2022/10/17 08:01:13;;;;;;;7.55;2.03;;;;;;;15.77;88.63;98038.81;5022624;28;20053;-63
2022/10/17 08:03:43;;;;;;;5.75;2.53;;;;;;;15.86;87.68;98033.66;5011823;28;20057;-65
2022/10/17 08:06:10;;;;;;;4.28;2.20;;;;;;;15.95;88.15;98043.00;5023030;28;20108;-63
2022/10/17 08:08:36;;;;;;;6.28;2.25;;;;;;;16.08;87.17;98038.09;5025296;28;20566;-63
2022/10/17 08:11:06;;;;;;;7.55;1.90;;;;;;;16.19;87.73;98044.38;5026253;28;20125;-63
2022/10/17 08:13:34;;;;;;;6.65;2.13;;;;;;;16.27;86.87;98035.63;5027512;28;20489;-63
2022/10/17 08:16:03;;;;;;;4.60;1.98;;;;;;;16.34;86.91;98038.09;5026552;28;20072;-63
2022/10/17 08:18:30;;;;;;;4.05;1.80;;;;;;;16.41;86.08;98038.66;5026738;28;20061;-62
2022/10/17 08:21:00;;;;;;;3.13;1.88;;;;;;;16.53;85.19;98035.63;5027376;28;20049;-63
2022/10/17 08:23:27;;;;;;;3.13;1.63;;;;;;;16.64;84.72;98041.91;5027038;28;20521;-63
2022/10/17 08:25:57;;;;;;;4.05;1.80;;;;;;;16.71;84.95;98047.09;5027065;28;20291;-63
2022/10/17 08:28:24;;;;;;;3.15;1.65;;;;;;;16.86;82.95;98058.00;5026552;28;20419;-61
2022/10/17 08:31:00;;;;;;;4.72;1.90;;;;;;;17.02;83.45;98057.97;5026204;28;20042;-62
2022/10/17 08:33:26;;;;;;;5.55;1.88;;;;;;;17.23;81.64;98057.94;5026861;28;20037;-63
2022/10/17 08:35:53;;;;;;;4.82;2.00;;;;;;;17.32;81.97;98059.00;5026621;28;20076;-63
2022/10/17 08:38:20;;;;;;;4.85;1.70;;;;;;;17.34;80.62;98061.44;5025849;28;20419;-62
2022/10/17 08:40:48;;;;;;;5.60;2.10;;;;;;;17.30;81.42;98053.00;5024511;28;20055;-62
2022/10/17 08:43:37;;;;;;;3.47;1.90;;;;;;;17.28;80.71;98049.69;5025624;28;20135;-61
2022/10/17 08:46:06;;;;;;;5.95;2.05;;;;;;;17.42;81.41;98050.75;5026464;28;20121;-62
2022/10/17 08:48:41;;;;;;;5.57;2.20;;;;;;;17.57;80.71;98053.72;5026050;28;20516;-61
2022/10/17 08:51:23;;;;;;;4.88;1.92;;;;;;;17.74;79.72;98058.81;5025906;28;20118;-62
2022/10/17 08:54:08;;;;;;;3.95;1.98;;;;;;;17.83;79.10;98068.06;5026314;28;20529;-62
2022/10/17 08:56:42;;;;;;;6.07;1.77;;;;;;;17.93;78.69;98056.22;5026075;28;20129;-61
2022/10/17 08:59:42;;;;;;;9.30;1.90;;;;;;;18.02;79.75;98059.22;5026238;28;20056;-62
2022/10/17 09:02:26;;;;;;;9.95;2.35;;;;;;;18.06;79.29;98057.53;5023994;28;20111;-62
2022/10/17 09:05:02;;;;;;;5.22;1.77;;;;;;;18.15;79.03;98065.97;5025883;28;20045;-62
2022/10/17 09:07:51;;;;;;;7.38;2.13;;;;;;;18.20;78.58;98061.28;5025244;28;20108;-62
2022/10/17 09:10:45;;;;;;;5.70;1.90;;;;;;;18.27;77.82;98050.00;5017712;28;20041;-62
2022/10/17 09:13:23;;;;;;;4.57;2.20;;;;;;;18.40;79.94;98058.69;5025388;28;20148;-63
2022/10/17 09:15:53;;;;;;;5.28;2.20;;;;;;;18.44;77.30;98062.47;5013297;28;20050;-63
2022/10/17 09:18:27;;;;;;;5.57;1.90;;;;;;;18.46;77.32;98066.56;5025689;28;20132;-62
2022/10/17 09:21:00;;;;;;;3.60;1.65;;;;;;;18.54;76.08;98061.59;5023937;28;20056;-65
2022/10/17 09:23:35;;;;;;;4.28;1.65;;;;;;;18.61;76.50;98066.72;5025832;28;20551;-66
2022/10/17 09:26:10;;;;;;;5.82;1.70;;;;;;;18.69;75.59;98060.63;5025431;28;20509;-66
2022/10/17 09:28:40;;;;;;;6.47;2.00;;;;;;;18.83;75.68;98056.09;5025425;28;20129;-66
2022/10/17 09:31:22;;;;;;;12.18;2.90;;;;;;;18.95;75.36;98060.38;5025658;28;20157;-66
2022/10/17 09:33:55;;;;;;;7.00;1.70;;;;;;;19.04;74.28;98055.88;5014135;28;20559;-66
2022/10/17 09:36:27;;;;;;;3.25;1.83;;;;;;;19.11;75.61;98061.06;5025725;28;20091;-66
2022/10/17 09:38:57;;;;;;;3.55;2.05;;;;;;;19.21;74.68;98060.91;5024768;28;20045;-66
2022/10/17 09:41:33;;;;;;;5.35;2.20;;;;;;;19.32;74.35;98063.56;5025185;28;20045;-66
2022/10/17 09:44:27;;;;;;;4.43;1.88;;;;;;;19.45;74.62;98060.09;5024597;28;20548;-65
2022/10/17 09:47:12;;;;;;;3.70;1.83;;;;;;;19.60;75.29;98056.34;5025718;28;20052;-64
2022/10/17 09:49:42;;;;;;;4.90;1.52;;;;;;;19.63;74.08;98061.25;5024471;28;20042;-64
2022/10/17 09:52:17;;;;;;;3.70;1.70;;;;;;;19.66;74.66;98053.53;5024894;28;20049;-64
2022/10/17 09:54:49;;;;;;;4.43;1.50;;;;;;;19.73;73.93;98057.56;5023980;28;20104;-64
2022/10/17 09:57:17;;;;;;;4.28;1.83;;;;;;;19.78;74.17;98058.59;5019498;28;20046;-64
2022/10/17 10:00:00;;;;;;;6.88;2.42;;;;;;;19.86;71.68;98058.75;5023903;28;20055;-64
2022/10/17 10:02:29;;;;;;;2.42;1.25;;;;;;;19.88;71.82;98063.94;5024875;28;20041;-64
2022/10/17 10:05:15;;;;;;;3.38;1.52;;;;;;;19.94;71.75;98061.94;5024283;28;20588;-64
2022/10/17 10:07:59;;;;;;;3.42;1.52;;;;;;;20.13;70.73;98065.50;5012398;28;20048;-64
2022/10/17 10:10:27;;;;;;;3.03;1.45;;;;;;;20.16;70.91;98066.84;5023833;28;20504;-63
2022/10/17 10:13:05;;;;;;;4.72;2.03;;;;;;;20.30;71.95;98071.63;5025099;28;20139;-65
2022/10/17 10:15:39;;;;;;;3.10;1.33;;;;;;;20.31;69.91;98074.03;5016306;28;20034;-63
2022/10/17 10:18:24;;;;;;;6.88;1.80;;;;;;;20.38;69.47;98070.94;5024737;28;20136;-64
2022/10/17 10:21:13;;;;;;;7.20;2.50;;;;;;;20.50;69.62;98071.25;5024439;28;20049;-64
2022/10/17 10:23:43;;;;;;;3.72;1.52;;;;;;;20.59;67.75;98076.06;5024906;28;20056;-63
2022/10/17 10:26:21;;;;;;;3.30;1.40;;;;;;;20.71;67.03;98070.13;5025267;28;20080;-63
2022/10/17 10:28:54;;;;;;;3.72;1.42;;;;;;;20.82;65.44;98074.31;5024820;28;20037;-64
2022/10/17 10:31:34;;;;;;;3.90;1.48;;;;;;;20.86;66.07;98071.78;5023581;28;20063;-64
2022/10/17 10:34:14;;;;;;;5.57;1.65;;;;;;;20.84;66.18;98072.09;5023893;28;20115;-64
2022/10/17 10:36:47;;;;;;;4.95;1.83;;;;;;;20.91;65.36;98077.22;5024292;28;20114;-64
2022/10/17 10:39:46;;;;;;;4.15;1.48;;;;;;;21.00;65.85;98074.56;5023310;28;20100;-64
2022/10/17 10:42:22;;;;;;;3.45;1.40;;;;;;;21.16;63.55;98075.91;5019948;28;20080;-64
2022/10/17 10:44:50;;;;;;;8.75;1.73;;;;;;;21.35;61.51;98077.78;5023889;28;20409;-64
2022/10/17 10:47:29;;;;;;;13.38;2.10;;;;;;;21.37;61.49;98070.00;5024409;28;20041;-64
2022/10/17 10:50:24;;;;;;;5.50;1.40;;;;;;;21.53;61.12;98072.47;5023371;28;20160;-64
2022/10/17 10:52:57;;;;;;;2.22;1.10;;;;;;;21.52;60.45;98076.34;5023559;28;20045;-64
2022/10/17 10:55:28;;;;;;;4.22;1.52;;;;;;;21.52;59.62;98073.59;5017372;28;20508;-64
2022/10/17 10:58:00;;;;;;;3.03;1.50;;;;;;;21.60;59.91;98072.03;5016294;28;20065;-64
2022/10/17 11:00:28;;;;;;;;;;;;;;;21.69;59.68;98072.94;5021491;28;20052;-64
2022/10/17 11:03:09;;;;;;;4.70;1.40;;;;;;;21.74;59.77;98064.59;5008928;28;19943;-64
2022/10/17 11:05:45;;;;;;;4.68;1.48;;;;;;;21.77;59.72;98063.16;5023638;28;20049;-64
2022/10/17 11:08:25;;;;;;;2.95;1.40;;;;;;;22.01;58.33;98070.34;5016490;28;20065;-64
2022/10/17 11:11:04;;;;;;;5.50;1.75;;;;;;;22.07;58.02;98067.16;5015400;28;20081;-65
2022/10/17 11:13:36;;;;;;;4.22;1.15;;;;;;;22.07;59.04;98071.84;5015011;28;20051;-64
2022/10/17 11:16:22;;;;;;;3.72;1.50;;;;;;;22.09;58.67;98078.72;5024223;28;20061;-64
2022/10/17 11:18:57;;;;;;;4.45;1.48;;;;;;;22.15;59.93;98078.59;5022905;28;20786;-64
2022/10/17 11:21:46;;;;;;;3.40;1.38;;;;;;;22.10;58.17;98074.00;5023690;28;20128;-64
2022/10/17 11:24:22;;;;;;;2.65;1.30;;;;;;;22.08;58.02;98068.00;5019938;28;20703;-65
2022/10/17 11:27:00;;;;;;;4.83;1.53;;;;;;;22.08;57.75;98073.50;5012066;28;20131;-64
2022/10/17 11:29:32;;;;;;;5.95;1.75;;;;;;;22.07;58.81;98061.66;5022757;28;20493;-64
2022/10/17 11:32:11;;;;;;;5.70;1.60;;;;;;;22.19;58.96;98072.13;5021444;28;20429;-64
2022/10/17 11:34:45;;;;;;;4.43;1.58;;;;;;;22.28;58.20;98069.44;5023175;28;20041;-64
2022/10/17 11:37:19;;;;;;;4.03;1.95;;;;;;;22.34;57.78;98070.16;5023963;28;20120;-64
2022/10/17 11:39:52;;;;;;;4.07;1.30;;;;;;;22.42;57.38;98069.41;5023795;28;20683;-65
2022/10/17 11:42:48;;;;;;;;;;;;;;;22.71;56.39;98070.09;5023742;28;20601;-64
2022/10/17 11:45:19;;;;;;;3.20;1.35;;;;;;;22.77;56.87;98066.06;5050849;28;19975;-63
2022/10/17 11:47:47;;;;;;;4.50;1.50;;;;;;;22.81;55.65;98069.03;5016887;28;19929;-64
2022/10/17 11:50:32;;;;;;;;;;;;;;;22.92;54.47;98066.81;5027975;28;20073;-64
2022/10/17 11:53:23;;;;;;;;;;;;;;;22.81;53.72;98066.25;5027623;28;20011;-64
2022/10/17 11:55:51;;;;;;;;;;;;;;;22.73;54.16;98071.41;5027777;28;19925;-64
2022/10/17 11:58:28;;;;;;;;;;;;;;;22.68;54.17;98067.97;5027452;28;19921;-64
2022/10/17 12:00:59;;;;;;;;;;;;;;;22.66;55.57;98070.22;5027358;28;19967;-65
2022/10/17 12:03:28;;;;;;;;;;;;;;;22.67;57.16;98069.09;5026990;28;19960;-64